Time;durP1;ratioP1;P1;durP2;ratioP2;P2;SDS_P1;SDS_P2;PMS_P1;PMS_P2;Temp;Humidity;BMP_temperature;BMP_pressure;BME280_temperature;BME280_humidity;BME280_pressure;Samples;Min_cycle;Max_cycle;Signal;HPM_P1;HPM_P2
2021/04/08 00:00:01;;;;;;;10.68;7.80;;;4.90;59.00;5.30;100481.00;;;;338534;28;92045;-90
2021/04/08 00:00:14;;;;;;;12.30;8.23;;;4.90;58.90;5.30;100487.00;;;;340011;28;96697;-90
2021/04/08 00:00:25;;;;;;;11.95;7.78;;;4.90;58.80;5.40;100489.00;;;;342536;28;92114;-90
2021/04/08 00:00:37;;;;;;;12.82;8.00;;;4.90;58.70;5.40;100487.00;;;;342676;28;96761;-90
2021/04/08 00:00:48;;;;;;;12.52;8.20;;;4.90;58.90;5.30;100493.00;;;;339740;28;91732;-91
2021/04/08 00:01:17;;;;;;;12.30;8.10;;;4.90;59.10;5.10;100489.00;;;;341114;28;95415;-90
2021/04/08 00:01:28;;;;;;;11.93;7.60;;;4.90;59.20;4.80;100498.00;;;;336987;28;91482;-90
2021/04/08 00:01:40;;;;;;;15.32;7.65;;;4.90;59.50;4.80;100491.00;;;;338712;28;93363;-90
2021/04/08 00:01:51;;;;;;;18.70;7.72;;;4.90;59.70;4.80;100494.00;;;;338442;28;91977;-90
2021/04/08 00:02:03;;;;;;;18.33;8.05;;;4.90;59.80;4.80;100486.00;;;;339940;28;94345;-90
2021/04/08 00:02:14;;;;;;;14.82;8.05;;;4.80;59.90;4.90;100489.00;;;;339717;28;92107;-90
2021/04/08 00:02:25;;;;;;;12.98;8.55;;;4.90;59.90;4.70;100496.00;;;;337083;28;95819;-90
2021/04/08 00:02:42;;;;;;;14.80;9.52;;;4.80;59.90;4.70;100491.00;;;;337288;28;91908;-90
2021/04/08 00:02:53;;;;;;;14.60;9.52;;;4.80;60.00;4.60;100493.00;;;;335956;28;96807;-90
2021/04/08 00:03:05;;;;;;;13.52;9.13;;;4.80;60.10;4.60;100492.00;;;;335958;28;91132;-90
2021/04/08 00:03:17;;;;;;;15.07;9.40;;;4.70;60.10;4.70;100487.00;;;;339711;28;93836;-89
2021/04/08 00:03:29;;;;;;;14.50;9.40;;;4.70;60.30;4.60;100485.00;;;;337147;28;90539;-90
2021/04/08 00:03:40;;;;;;;15.60;9.95;;;4.80;60.30;4.60;100488.00;;;;337351;28;93854;-90
2021/04/08 00:03:52;;;;;;;14.02;9.55;;;4.70;60.50;4.70;100491.00;;;;338247;28;91203;-91
2021/04/08 00:04:03;;;;;;;15.32;10.63;;;4.70;60.50;4.80;100484.00;;;;337199;28;94523;-90
2021/04/08 00:04:14;;;;;;;17.38;12.75;;;4.70;60.20;4.80;100487.00;;;;335427;28;92153;-90
2021/04/08 00:04:26;;;;;;;21.42;14.25;;;4.70;60.20;4.80;100494.00;;;;338576;28;96315;-90
2021/04/08 00:04:37;;;;;;;25.58;15.93;;;4.70;60.10;4.90;100494.00;;;;335645;28;92098;-91
2021/04/08 00:04:48;;;;;;;30.00;17.92;;;4.70;60.00;4.80;100482.00;;;;337180;28;97076;-90
2021/04/08 00:05:00;;;;;;;33.97;20.77;;;4.60;60.00;4.80;100486.00;;;;339667;28;91239;-90
2021/04/08 00:05:13;;;;;;;33.95;20.88;;;4.60;60.20;4.70;100489.00;;;;339045;28;94281;-90
2021/04/08 00:05:24;;;;;;;32.63;19.33;;;4.60;60.20;4.60;100487.00;;;;336851;28;91425;-89
2021/04/08 00:05:36;;;;;;;31.60;18.38;;;4.60;60.20;4.80;100489.00;;;;338597;28;95886;-90
2021/04/08 00:05:47;;;;;;;32.47;19.00;;;4.60;60.10;4.90;100484.00;;;;338506;28;92010;-90
2021/04/08 00:05:58;;;;;;;32.85;19.30;;;4.60;59.80;5.00;100491.00;;;;337274;28;93850;-87
2021/04/08 00:06:10;;;;;;;35.38;20.65;;;4.60;59.70;5.00;100482.00;;;;336911;28;91309;-90
2021/04/08 00:06:21;;;;;;;39.13;22.25;;;4.60;59.70;5.10;100489.00;;;;339955;28;95698;-90
2021/04/08 00:06:33;;;;;;;39.10;22.48;;;4.60;60.60;5.10;100491.00;;;;339655;28;91141;-90
2021/04/08 00:06:44;;;;;;;40.42;22.65;;;4.60;59.90;5.20;100478.00;;;;338544;28;95395;-90
2021/04/08 00:06:55;;;;;;;38.80;21.13;;;4.60;60.00;5.00;100493.00;;;;334547;29;92005;-90
2021/04/08 00:07:07;;;;;;;37.78;20.70;;;4.70;60.00;5.00;100489.00;;;;336933;28;95721;-89
2021/04/08 00:07:19;;;;;;;32.45;18.65;;;4.70;60.10;4.90;100488.00;;;;337105;28;90537;-90
2021/04/08 00:07:30;;;;;;;28.30;16.90;;;4.70;60.20;5.10;100490.00;;;;335861;28;95197;-90
2021/04/08 00:07:42;;;;;;;26.35;16.40;;;4.70;60.60;5.00;100492.00;;;;337883;28;92133;-90
2021/04/08 00:07:53;;;;;;;29.40;17.23;;;4.60;59.90;5.10;100490.00;;;;335937;28;97583;-90
2021/04/08 00:08:05;;;;;;;34.50;18.85;;;4.70;59.90;5.20;100487.00;;;;338289;28;91912;-90
2021/04/08 00:08:16;;;;;;;39.70;21.70;;;4.70;59.90;5.20;100491.00;;;;338386;28;94449;-89
2021/04/08 00:08:28;;;;;;;42.85;23.42;;;4.70;60.20;5.30;100484.00;;;;339577;28;92006;-90
2021/04/08 00:08:39;;;;;;;38.00;21.83;;;4.70;60.30;5.20;100481.00;;;;337133;28;96616;-90
2021/04/08 00:08:50;;;;;;;32.72;19.20;;;4.70;60.40;5.20;100493.00;;;;341164;28;91995;-90
2021/04/08 00:09:02;;;;;;;27.55;16.75;;;4.70;60.30;5.20;100486.00;;;;337214;28;96877;-89
2021/04/08 00:09:13;;;;;;;27.15;16.33;;;4.70;60.00;5.10;100495.00;;;;342360;28;91359;-90
2021/04/08 00:09:25;;;;;;;25.02;15.43;;;4.80;60.20;5.20;100492.00;;;;337136;28;96581;-90
2021/04/08 00:09:36;;;;;;;23.25;14.15;;;4.70;60.10;5.10;100499.00;;;;338462;28;92065;-90
2021/04/08 00:09:47;;;;;;;21.17;13.45;;;4.70;60.10;4.90;100491.00;;;;341238;28;96093;-90
2021/04/08 00:09:59;;;;;;;17.85;11.80;;;4.70;60.20;5.10;100495.00;;;;339843;28;92081;-90
2021/04/08 00:10:12;;;;;;;17.42;10.48;;;4.80;60.20;5.10;100497.00;;;;338080;28;96829;-91
2021/04/08 00:10:23;;;;;;;16.63;10.05;;;4.80;60.80;5.20;100497.00;;;;339701;28;91135;-90
2021/04/08 00:10:35;;;;;;;17.52;10.10;;;4.70;60.10;5.20;100496.00;;;;338598;28;94617;-90
2021/04/08 00:10:46;;;;;;;16.85;10.27;;;4.80;60.20;5.20;100493.00;;;;339776;28;92141;-90
2021/04/08 00:10:57;;;;;;;16.90;9.95;;;4.80;60.10;5.20;100486.00;;;;338188;28;95321;-89
2021/04/08 00:11:09;;;;;;;17.65;9.90;;;4.80;60.00;5.20;100482.00;;;;338708;28;91318;-90
2021/04/08 00:11:21;;;;;;;15.98;9.43;;;4.80;60.00;5.20;100500.00;;;;339995;28;95338;-90
2021/04/08 00:11:32;;;;;;;13.40;8.88;;;4.80;59.90;5.20;100493.00;;;;338277;28;91249;-90
2021/04/08 00:11:43;;;;;;;12.77;8.73;;;4.80;60.50;5.20;100498.00;;;;339967;28;97649;-90
2021/04/08 00:11:57;;;;;;;15.02;8.80;;;4.80;59.90;5.20;100491.00;;;;339808;28;92053;-90
2021/04/08 00:12:09;;;;;;;15.05;8.48;;;4.80;59.80;5.30;100490.00;;;;339855;28;94721;-89
2021/04/08 00:12:21;;;;;;;14.07;8.27;;;4.80;59.80;5.30;100494.00;;;;338644;28;91945;-90
2021/04/08 00:12:32;;;;;;;12.57;7.75;;;4.80;60.00;5.30;100488.00;;;;337298;28;96614;-90
2021/04/08 00:12:43;;;;;;;14.88;8.10;;;4.80;60.00;5.30;100495.00;;;;335943;28;91095;-90
2021/04/08 00:12:55;;;;;;;12.75;7.80;;;4.80;60.00;5.20;100490.00;;;;337260;28;96808;-89
2021/04/08 00:13:06;;;;;;;13.15;8.13;;;4.80;60.00;5.10;100498.00;;;;339391;28;91303;-90
2021/04/08 00:13:17;;;;;;;12.20;7.40;;;4.80;60.00;5.00;100490.00;;;;336475;28;97497;-90
2021/04/08 00:13:29;;;;;;;11.55;6.90;;;4.80;60.20;5.10;100499.00;;;;338343;28;92161;-89
2021/04/08 00:13:40;;;;;;;11.40;6.75;;;4.80;60.20;5.10;100491.00;;;;340051;28;96225;-90
2021/04/08 00:13:52;;;;;;;10.98;7.18;;;4.80;60.00;5.20;100497.00;;;;339828;28;92050;-90
2021/04/08 00:14:03;;;;;;;10.75;7.60;;;4.80;59.80;5.30;100497.00;;;;338587;28;96425;-89
2021/04/08 00:14:15;;;;;;;9.85;7.30;;;4.80;59.80;5.30;100490.00;;;;335805;28;92154;-89
2021/04/08 00:14:26;;;;;;;9.45;7.07;;;4.80;60.10;5.30;100485.00;;;;339976;28;95351;-90
2021/04/08 00:14:38;;;;;;;9.23;7.00;;;4.80;60.10;5.20;100489.00;;;;338411;28;92199;-90
2021/04/08 00:14:49;;;;;;;11.30;7.60;;;4.80;60.30;5.00;100491.00;;;;339893;28;97037;-90
2021/04/08 00:15:01;;;;;;;11.85;7.80;;;4.80;60.30;4.90;100493.00;;;;341084;28;91358;-90
2021/04/08 00:15:14;;;;;;;12.38;7.60;;;4.80;60.40;5.10;100492.00;;;;342723;28;93629;-90
2021/04/08 00:15:25;;;;;;;11.35;7.53;;;4.80;60.30;5.20;100487.00;;;;338211;28;92190;-90
2021/04/08 00:15:37;;;;;;;10.80;7.53;;;4.80;60.10;5.30;100492.00;;;;339961;28;94359;-90
2021/04/08 00:15:48;;;;;;;11.45;7.60;;;4.80;60.10;5.20;100492.00;;;;337097;28;92036;-90
2021/04/08 00:16:00;;;;;;;10.77;7.60;;;4.80;60.30;5.00;100493.00;;;;338774;28;94236;-90
2021/04/08 00:16:12;;;;;;;10.43;7.57;;;4.80;60.50;4.80;100491.00;;;;334091;29;91352;-90
2021/04/08 00:16:23;;;;;;;10.50;7.88;;;4.80;61.20;4.70;100489.00;;;;341231;28;96375;-89
2021/04/08 00:16:34;;;;;;;11.70;7.68;;;4.80;60.80;4.60;100486.00;;;;339541;28;92004;-89
2021/04/08 00:16:46;;;;;;;13.43;8.88;;;4.70;60.90;4.60;100483.00;;;;338634;28;94175;-90
2021/04/08 00:16:57;;;;;;;14.60;9.02;;;4.70;61.20;4.80;100488.00;;;;339849;28;91236;-90
2021/04/08 00:17:09;;;;;;;16.42;10.27;;;4.70;61.30;4.70;100486.00;;;;339832;28;94571;-89
2021/04/08 00:17:20;;;;;;;19.45;11.02;;;4.70;61.60;4.60;100486.00;;;;335959;28;91091;-90
2021/04/08 00:17:31;;;;;;;20.08;12.43;;;4.70;61.70;4.60;100496.00;;;;339819;28;96637;-89
2021/04/08 00:17:43;;;;;;;19.67;12.98;;;4.60;61.70;4.60;100487.00;;;;335884;28;91460;-90
2021/04/08 00:17:54;;;;;;;20.92;13.85;;;4.60;62.00;4.50;100486.00;;;;338529;28;96371;-90
2021/04/08 00:18:06;;;;;;;26.67;16.05;;;4.50;62.00;4.50;100497.00;;;;338411;28;92312;-89
2021/04/08 00:18:17;;;;;;;30.42;18.00;;;4.50;61.90;4.50;100489.00;;;;334607;29;96913;-90
2021/04/08 00:18:29;;;;;;;33.13;19.95;;;4.50;61.80;4.50;100487.00;;;;339785;28;91134;-89
2021/04/08 00:18:43;;;;;;;35.33;21.60;;;4.50;62.20;4.40;100496.00;;;;337103;28;96083;-90
2021/04/08 00:18:54;;;;;;;33.83;21.13;;;4.50;61.50;4.30;100492.00;;;;337220;28;91322;-91
2021/04/08 00:19:07;;;;;;;31.35;20.02;;;4.40;61.30;4.30;100492.00;;;;334483;28;94151;-89
2021/04/08 00:19:18;;;;;;;31.77;19.70;;;4.40;61.50;4.40;100487.00;;;;337103;28;92083;-90
2021/04/08 00:19:29;;;;;;;30.85;19.17;;;4.40;61.50;4.50;100486.00;;;;334347;28;96468;-89
2021/04/08 00:19:41;;;;;;;25.48;16.73;;;4.30;61.40;4.60;100487.00;;;;342265;28;91314;-90
2021/04/08 00:19:52;;;;;;;22.33;14.45;;;4.30;61.80;4.60;100484.00;;;;339819;28;96763;-90
2021/04/08 00:20:13;;;;;;;18.65;12.20;;;4.30;61.90;4.60;100492.00;;;;341057;28;92148;-90
2021/04/08 00:20:25;;;;;;;14.90;9.95;;;4.30;61.50;4.60;100487.00;;;;338415;28;95942;-89
2021/04/08 00:20:36;;;;;;;16.95;11.10;;;4.30;61.20;4.60;100486.00;;;;339457;28;92027;-89
2021/04/08 00:20:47;;;;;;;18.08;12.00;;;4.30;61.20;4.60;100484.00;;;;339659;28;95730;-90
2021/04/08 00:20:59;;;;;;;19.17;12.73;;;4.30;61.20;4.50;100489.00;;;;338583;28;90372;-90
2021/04/08 00:21:11;;;;;;;18.88;12.55;;;4.30;61.40;4.60;100484.00;;;;337219;28;96415;-90
2021/04/08 00:21:22;;;;;;;20.02;12.82;;;4.30;61.40;4.60;100492.00;;;;341153;28;92251;-89
2021/04/08 00:21:33;;;;;;;21.05;12.38;;;4.30;61.10;4.60;100487.00;;;;335756;28;94481;-90
2021/04/08 00:21:45;;;;;;;20.30;12.15;;;4.30;61.10;4.60;100483.00;;;;339840;28;91953;-90
2021/04/08 00:21:56;;;;;;;20.13;12.70;;;4.30;61.00;4.70;100487.00;;;;335668;28;97381;-90
2021/04/08 00:22:07;;;;;;;19.52;13.07;;;4.30;61.00;4.70;100487.00;;;;338564;28;92089;-90
2021/04/08 00:22:19;;;;;;;19.77;12.75;;;4.30;60.90;4.80;100482.00;;;;339419;28;95452;-90
2021/04/08 00:22:30;;;;;;;20.20;12.48;;;4.30;61.10;4.80;100480.00;;;;338434;28;91997;-90
2021/04/08 00:22:41;;;;;;;20.40;12.65;;;4.30;61.30;4.70;100482.00;;;;339062;28;96522;-89
2021/04/08 00:22:53;;;;;;;19.77;13.27;;;4.30;61.60;4.70;100491.00;;;;339586;28;91412;-90
2021/04/08 00:23:04;;;;;;;19.25;13.80;;;4.30;62.00;4.60;100488.00;;;;339942;28;95825;-90
2021/04/08 00:23:15;;;;;;;19.77;14.07;;;4.30;61.90;4.60;100491.00;;;;338475;28;92198;-90
2021/04/08 00:23:27;;;;;;;19.25;13.18;;;4.30;61.70;4.60;100483.00;;;;339814;28;97117;-90
2021/04/08 00:23:38;;;;;;;20.35;13.07;;;4.30;61.70;4.70;100491.00;;;;339962;28;91908;-90
2021/04/08 00:23:50;;;;;;;19.20;12.68;;;4.30;61.50;4.60;100489.00;;;;337282;28;95472;-90
2021/04/08 00:24:02;;;;;;;19.63;13.07;;;4.30;61.70;4.60;100486.00;;;;338488;28;92013;-89
2021/04/08 00:24:13;;;;;;;19.00;12.65;;;4.30;61.80;4.60;100497.00;;;;341244;28;93726;-90
2021/04/08 00:24:24;;;;;;;21.00;13.48;;;4.30;61.90;4.50;100499.00;;;;338697;28;91912;-90
2021/04/08 00:24:36;;;;;;;20.35;13.18;;;4.30;62.00;4.50;100489.00;;;;338630;28;96846;-90
2021/04/08 00:24:47;;;;;;;19.88;13.25;;;4.30;62.00;4.50;100490.00;;;;335889;28;92045;-90
2021/04/08 00:24:58;;;;;;;18.88;13.00;;;4.30;62.10;4.60;100492.00;;;;337195;28;96371;-90
2021/04/08 00:25:11;;;;;;;18.60;12.55;;;4.20;61.80;4.60;100493.00;;;;339051;28;92166;-90
2021/04/08 00:25:23;;;;;;;19.25;11.77;;;4.20;61.70;4.60;100491.00;;;;339794;28;93884;-89
2021/04/08 00:25:36;;;;;;;17.92;11.36;;;4.20;62.10;4.50;100489.00;;;;337150;28;92164;-90
2021/04/08 00:25:48;;;;;;;18.75;12.07;;;4.20;62.30;4.60;100494.00;;;;338566;28;96268;-90
2021/04/08 00:25:59;;;;;;;19.15;13.30;;;4.20;62.90;4.70;100491.00;;;;338487;28;92023;-91
2021/04/08 00:26:11;;;;;;;22.67;14.02;;;4.20;62.20;4.60;100494.00;;;;341396;28;95923;-90
2021/04/08 00:26:22;;;;;;;22.55;13.88;;;4.30;62.30;4.50;100490.00;;;;339828;28;91081;-90
2021/04/08 00:26:33;;;;;;;20.60;13.32;;;4.30;62.40;4.40;100487.00;;;;339962;28;97051;-90
2021/04/08 00:26:45;;;;;;;21.30;13.52;;;4.30;62.50;4.70;100493.00;;;;338520;28;90431;-89
2021/04/08 00:26:56;;;;;;;21.90;13.07;;;4.30;62.30;4.80;100490.00;;;;338484;28;96286;-90
2021/04/08 00:27:07;;;;;;;20.77;12.68;;;4.30;62.20;4.90;100491.00;;;;339845;28;92121;-90
2021/04/08 00:27:19;;;;;;;19.10;12.60;;;4.30;62.20;4.90;100488.00;;;;338671;28;97312;-90
2021/04/08 00:27:30;;;;;;;20.10;13.25;;;4.30;62.20;5.00;100492.00;;;;339808;28;91209;-90
2021/04/08 00:27:42;;;;;;;21.02;13.63;;;4.30;62.10;5.00;100494.00;;;;341180;28;97013;-90
2021/04/08 00:27:54;;;;;;;20.40;12.27;;;4.40;62.20;5.00;100493.00;;;;339837;28;92081;-90
2021/04/08 00:28:05;;;;;;;18.88;11.80;;;4.40;62.30;4.90;100493.00;;;;338496;28;97272;-90
2021/04/08 00:28:17;;;;;;;19.40;12.55;;;4.40;62.30;4.70;100490.00;;;;338485;28;92042;-91
2021/04/08 00:28:28;;;;;;;17.02;12.27;;;4.40;62.40;4.80;100493.00;;;;341306;28;92810;-90
2021/04/08 00:28:40;;;;;;;17.92;12.18;;;4.40;62.20;4.70;100493.00;;;;340863;28;90423;-90
2021/04/08 00:28:51;;;;;;;16.67;11.20;;;4.40;62.20;4.70;100492.00;;;;340395;28;96616;-90
2021/04/08 00:29:03;;;;;;;16.38;11.23;;;4.40;62.10;4.60;100484.00;;;;341668;28;91253;-90
2021/04/08 00:29:14;;;;;;;15.93;11.38;;;4.40;62.20;4.70;100495.00;;;;340154;28;96785;-90
2021/04/08 00:29:25;;;;;;;16.92;11.93;;;4.40;62.10;4.60;100480.00;;;;337618;28;91306;-88
2021/04/08 00:29:37;;;;;;;15.93;11.70;;;4.40;62.20;4.70;100498.00;;;;340444;28;92996;-90
2021/04/08 00:29:48;;;;;;;14.32;10.73;;;4.40;62.30;4.80;100493.00;;;;339205;28;91354;-90
2021/04/08 00:29:59;;;;;;;14.98;10.93;;;4.40;62.20;4.80;100494.00;;;;336474;28;93031;-90
2021/04/08 00:30:12;;;;;;;15.95;11.05;;;4.40;61.90;4.60;100489.00;;;;336463;28;92008;-89
2021/04/08 00:30:23;;;;;;;15.50;10.50;;;4.40;62.20;4.70;100493.00;;;;336522;28;95444;-90
2021/04/08 00:30:42;;;;;;;15.45;10.52;;;4.40;62.10;4.70;100489.00;;;;339101;28;90432;-90
2021/04/08 00:30:54;;;;;;;16.48;10.82;;;4.40;62.00;4.80;100490.00;;;;337976;28;92714;-90
2021/04/08 00:31:06;;;;;;;16.83;10.73;;;4.40;61.80;4.80;100494.00;;;;340028;28;92013;-90
2021/04/08 00:31:17;;;;;;;16.52;10.52;;;4.40;62.10;4.70;100492.00;;;;338387;28;95789;-90
2021/04/08 00:31:29;;;;;;;16.63;10.75;;;4.30;62.20;4.60;100497.00;;;;338885;28;92343;-89
2021/04/08 00:31:41;;;;;;;15.70;11.02;;;4.40;62.60;4.60;100493.00;;;;337673;28;97033;-90
2021/04/08 00:31:53;;;;;;;14.68;10.60;;;4.30;62.60;4.50;100492.00;;;;337890;28;91936;-90
2021/04/08 00:32:05;;;;;;;13.68;9.55;;;4.30;62.40;4.50;100493.00;;;;339004;28;96741;-90
2021/04/08 00:32:16;;;;;;;14.48;9.32;;;4.30;62.40;4.60;100494.00;;;;337781;28;92059;-90
2021/04/08 00:32:28;;;;;;;13.45;9.68;;;4.40;62.50;4.60;100498.00;;;;340550;28;94964;-90
2021/04/08 00:32:39;;;;;;;14.68;9.82;;;4.30;62.40;4.60;100493.00;;;;336485;28;91494;-90
2021/04/08 00:32:51;;;;;;;13.88;9.63;;;4.40;62.40;4.70;100495.00;;;;341918;28;94188;-90
2021/04/08 00:33:02;;;;;;;15.73;9.70;;;4.30;62.20;4.80;100494.00;;;;339076;28;91112;-89
2021/04/08 00:33:15;;;;;;;14.38;9.30;;;4.40;62.20;4.90;100493.00;;;;343019;28;97103;-90
2021/04/08 00:33:26;;;;;;;11.05;8.00;;;4.40;62.40;4.90;100492.00;;;;336316;28;92132;-90
2021/04/08 00:33:37;;;;;;;11.80;8.38;;;4.40;62.20;4.80;100487.00;;;;340410;28;96920;-90
2021/04/08 00:33:49;;;;;;;15.07;9.18;;;4.40;62.20;4.90;100495.00;;;;337678;28;91201;-90
2021/04/08 00:34:01;;;;;;;16.92;9.75;;;4.40;62.10;4.90;100496.00;;;;340352;28;96589;-89
2021/04/08 00:34:13;;;;;;;15.98;10.07;;;4.40;62.60;4.90;100496.00;;;;337350;28;92178;-91
2021/04/08 00:34:24;;;;;;;15.20;10.40;;;4.40;62.70;4.70;100494.00;;;;338818;28;92667;-90
2021/04/08 00:34:35;;;;;;;15.77;11.13;;;4.40;62.20;4.80;100498.00;;;;334835;29;91379;-90
2021/04/08 00:34:47;;;;;;;15.52;11.10;;;4.40;62.10;4.90;100496.00;;;;338510;28;93889;-90
2021/04/08 00:34:58;;;;;;;14.82;11.32;;;4.40;62.00;5.00;100494.00;;;;334270;29;91979;-90
2021/04/08 00:35:10;;;;;;;16.08;10.70;;;4.40;62.10;5.10;100496.00;;;;337217;28;95386;-90
2021/04/08 00:35:21;;;;;;;16.13;10.45;;;4.50;62.20;5.10;100491.00;;;;335966;28;91899;-89
2021/04/08 00:35:33;;;;;;;14.93;10.15;;;4.50;62.20;5.00;100497.00;;;;337185;28;96509;-90
2021/04/08 00:35:44;;;;;;;14.40;10.82;;;4.50;62.20;4.90;100496.00;;;;333274;29;92007;-90
2021/04/08 00:35:56;;;;;;;16.60;11.43;;;4.50;62.10;4.90;100492.00;;;;338645;28;92809;-90
2021/04/08 00:36:07;;;;;;;17.23;11.50;;;4.50;62.20;5.00;100497.00;;;;334579;29;92033;-90
2021/04/08 00:36:19;;;;;;;17.88;12.00;;;4.50;62.00;5.00;100497.00;;;;337253;28;96859;-90
2021/04/08 00:36:30;;;;;;;16.92;11.93;;;4.50;61.90;5.10;100497.00;;;;334639;29;91272;-90
2021/04/08 00:36:41;;;;;;;18.80;12.60;;;4.50;61.90;5.00;100500.00;;;;337276;28;93209;-90
2021/04/08 00:36:53;;;;;;;19.60;12.77;;;4.50;62.00;5.00;100499.00;;;;334413;29;92027;-90
2021/04/08 00:37:04;;;;;;;18.77;11.63;;;4.50;62.00;4.90;100491.00;;;;337230;28;94111;-90
2021/04/08 00:37:15;;;;;;;17.27;11.00;;;4.50;62.10;4.90;100499.00;;;;336952;28;92041;-90
2021/04/08 00:37:27;;;;;;;17.80;11.18;;;4.50;62.00;5.00;100500.00;;;;335458;28;95407;-89
2021/04/08 00:37:38;;;;;;;16.90;11.82;;;4.50;62.00;5.00;100497.00;;;;334499;29;91942;-90
2021/04/08 00:37:49;;;;;;;17.15;12.65;;;4.50;62.00;5.10;100500.00;;;;334641;29;93850;-90
2021/04/08 00:38:01;;;;;;;18.13;11.82;;;4.60;62.30;5.00;100496.00;;;;334599;29;92011;-90
2021/04/08 00:38:13;;;;;;;18.33;11.02;;;4.50;62.30;5.00;100498.00;;;;335837;28;93824;-90
2021/04/08 00:38:24;;;;;;;19.33;10.32;;;4.60;62.30;5.10;100491.00;;;;338436;28;91301;-90
2021/04/08 00:38:35;;;;;;;17.35;10.32;;;4.60;62.80;5.20;100496.00;;;;338627;28;95979;-90
2021/04/08 00:38:47;;;;;;;15.75;10.10;;;4.60;62.20;5.20;100506.00;;;;339723;28;92065;-90
2021/04/08 00:38:58;;;;;;;13.65;9.75;;;4.60;62.10;5.20;100501.00;;;;338581;28;94245;-90
2021/04/08 00:39:11;;;;;;;13.45;9.57;;;4.60;62.10;5.20;100493.00;;;;339841;28;92160;-90
2021/04/08 00:39:23;;;;;;;13.13;9.45;;;4.60;62.00;5.20;100494.00;;;;337344;28;96540;-90
2021/04/08 00:39:34;;;;;;;11.90;9.00;;;4.60;61.70;4.90;100500.00;;;;340879;28;92078;-90
2021/04/08 00:39:46;;;;;;;12.38;9.20;;;4.60;61.90;4.90;100492.00;;;;334779;29;93103;-90
2021/04/08 00:39:57;;;;;;;11.63;9.10;;;4.60;61.70;4.70;100499.00;;;;339845;28;91960;-90
2021/04/08 00:40:14;;;;;;;11.48;9.15;;;4.60;61.80;4.70;100499.00;;;;338234;28;93299;-89
2021/04/08 00:40:25;;;;;;;13.15;8.98;;;4.60;62.00;5.00;100495.00;;;;337357;28;91599;-90
2021/04/08 00:40:37;;;;;;;12.55;8.73;;;4.60;62.00;5.00;100497.00;;;;341309;28;95842;-90
2021/04/08 00:40:48;;;;;;;12.10;8.85;;;4.60;62.00;4.90;100494.00;;;;336018;28;92545;-90
2021/04/08 00:41:01;;;;;;;11.07;8.75;;;4.60;62.10;4.70;100487.00;;;;338943;28;94249;-90
2021/04/08 00:41:12;;;;;;;12.23;8.80;;;4.60;62.70;4.50;100499.00;;;;334030;29;92011;-90
2021/04/08 00:41:24;;;;;;;12.85;8.60;;;4.60;62.70;4.60;100497.00;;;;338566;28;96640;-89
2021/04/08 00:41:36;;;;;;;13.75;8.65;;;4.50;62.70;4.80;100484.00;;;;338678;28;92011;-90
2021/04/08 00:41:47;;;;;;;11.70;7.88;;;4.50;62.60;4.90;100491.00;;;;337636;28;93984;-90
2021/04/08 00:41:59;;;;;;;11.77;8.23;;;4.60;62.70;4.90;100489.00;;;;337451;28;91996;-90
2021/04/08 00:42:10;;;;;;;13.02;8.63;;;4.60;62.70;4.60;100494.00;;;;338887;28;93352;-90
2021/04/08 00:42:22;;;;;;;14.68;9.13;;;4.60;62.50;4.90;100501.00;;;;338829;28;91176;-90
2021/04/08 00:42:33;;;;;;;13.45;8.88;;;4.60;62.40;5.00;100496.00;;;;339047;28;91938;-90
2021/04/08 00:42:45;;;;;;;12.45;8.70;;;4.60;62.90;4.80;100489.00;;;;333506;29;92014;-90
2021/04/08 00:42:56;;;;;;;12.27;9.38;;;4.60;62.20;4.90;100495.00;;;;336179;28;96529;-90
2021/04/08 00:43:08;;;;;;;12.38;9.90;;;4.60;62.10;4.80;100487.00;;;;334329;29;92046;-90
2021/04/08 00:43:19;;;;;;;13.63;10.73;;;4.60;62.20;4.80;100489.00;;;;340207;28;93846;-90
2021/04/08 00:43:31;;;;;;;14.18;11.15;;;4.60;62.90;4.80;100494.00;;;;334862;28;91837;-90
2021/04/08 00:43:42;;;;;;;16.70;11.35;;;4.60;62.30;4.90;100488.00;;;;337318;28;95599;-90
2021/04/08 00:43:57;;;;;;;18.58;11.20;;;4.60;62.20;5.00;100490.00;;;;336142;28;91068;-90
2021/04/08 00:44:08;;;;;;;19.23;11.10;;;4.60;62.00;5.00;100490.00;;;;336022;28;93294;-89
2021/04/08 00:44:19;;;;;;;18.60;11.50;;;4.60;62.00;5.00;100497.00;;;;337430;28;91230;-90
2021/04/08 00:44:31;;;;;;;16.58;10.95;;;4.60;61.90;4.90;100493.00;;;;338847;28;95945;-90
2021/04/08 00:44:42;;;;;;;16.17;10.85;;;4.60;61.80;5.00;100494.00;;;;337477;28;91893;-90
2021/04/08 00:44:53;;;;;;;15.25;10.93;;;4.60;61.90;4.80;100489.00;;;;337384;28;94253;-90
2021/04/08 00:45:06;;;;;;;15.04;11.02;;;4.60;62.10;4.70;100489.00;;;;334686;29;91358;-90
2021/04/08 00:45:18;;;;;;;16.02;10.70;;;4.60;62.10;4.60;100500.00;;;;338766;28;94076;-90
2021/04/08 00:45:29;;;;;;;16.98;10.85;;;4.50;62.10;4.80;100496.00;;;;336094;28;92010;-90
2021/04/08 00:45:45;;;;;;;15.45;10.18;;;4.60;62.80;4.90;100495.00;;;;338877;28;93159;-90
2021/04/08 00:45:57;;;;;;;14.18;9.60;;;4.60;62.10;5.00;100496.00;;;;334766;29;92213;-90
2021/04/08 00:46:08;;;;;;;14.02;9.32;;;4.60;62.10;5.00;100495.00;;;;338047;28;94883;-89
2021/04/08 00:46:19;;;;;;;14.00;9.80;;;4.50;62.10;5.10;100502.00;;;;338306;28;91350;-90
2021/04/08 00:46:31;;;;;;;14.05;9.80;;;4.50;62.00;4.80;100492.00;;;;337566;28;95742;-90
2021/04/08 00:46:42;;;;;;;15.80;10.35;;;4.50;62.80;4.70;100493.00;;;;339594;28;92078;-90
2021/04/08 00:46:53;;;;;;;15.18;9.77;;;4.50;62.40;4.50;100503.00;;;;338805;28;95476;-90
2021/04/08 00:47:05;;;;;;;15.93;10.32;;;4.50;62.60;4.50;100501.00;;;;338707;28;91239;-90
2021/04/08 00:47:16;;;;;;;14.38;9.60;;;4.50;62.60;4.70;100487.00;;;;338719;28;96493;-90
2021/04/08 00:47:28;;;;;;;13.82;9.05;;;4.50;62.50;4.70;100501.00;;;;337281;28;92079;-90
2021/04/08 00:47:39;;;;;;;12.45;8.45;;;4.50;62.90;4.70;100498.00;;;;339000;28;94266;-90
2021/04/08 00:47:51;;;;;;;12.43;8.45;;;4.40;62.80;4.80;100492.00;;;;337380;28;91142;-89
2021/04/08 00:48:03;;;;;;;11.20;7.55;;;4.40;63.20;4.90;100491.00;;;;338844;28;93757;-89
2021/04/08 00:48:15;;;;;;;9.76;6.76;;;4.40;62.50;4.80;100495.00;;;;334873;29;91232;-90
2021/04/08 00:48:26;;;;;;;10.15;7.00;;;4.40;62.40;4.60;100495.00;;;;338877;28;95351;-90
2021/04/08 00:48:38;;;;;;;11.02;7.43;;;4.40;62.30;4.60;100489.00;;;;334810;29;91150;-90
2021/04/08 00:48:50;;;;;;;12.08;7.96;;;4.40;62.40;4.60;100495.00;;;;337426;28;95895;-90
2021/04/08 00:49:01;;;;;;;11.80;8.05;;;4.40;62.50;4.80;100488.00;;;;335903;28;92019;-90
2021/04/08 00:49:13;;;;;;;12.60;7.82;;;4.40;62.50;4.90;100493.00;;;;337442;28;96584;-90
2021/04/08 00:49:24;;;;;;;12.25;7.55;;;4.40;62.70;4.80;100500.00;;;;336002;28;91911;-89
2021/04/08 00:49:35;;;;;;;13.18;7.78;;;4.40;62.70;4.60;100500.00;;;;337485;28;96812;-90
2021/04/08 00:49:47;;;;;;;12.40;8.35;;;4.40;62.90;4.70;100486.00;;;;334957;29;91885;-90
2021/04/08 00:49:58;;;;;;;11.18;8.30;;;4.40;62.80;4.60;100488.00;;;;336107;28;96600;-89
2021/04/08 00:50:10;;;;;;;11.48;8.68;;;4.40;63.00;4.50;100493.00;;;;334936;28;91880;-90
2021/04/08 00:50:22;;;;;;;12.15;8.85;;;4.40;63.20;4.60;100494.00;;;;333762;29;93518;-90
2021/04/08 00:50:33;;;;;;;12.07;8.65;;;4.40;62.90;4.60;100495.00;;;;337572;28;91038;-90
2021/04/08 00:50:44;;;;;;;10.75;8.48;;;4.30;62.70;4.70;100498.00;;;;334875;29;96720;-89
2021/04/08 00:50:56;;;;;;;9.38;8.00;;;4.40;62.60;4.80;100498.00;;;;335938;28;92035;-89
2021/04/08 00:51:07;;;;;;;9.50;7.75;;;4.40;62.50;4.80;100496.00;;;;336175;28;97096;-90
2021/04/08 00:51:19;;;;;;;10.23;7.65;;;4.40;62.50;4.70;100494.00;;;;337009;28;92067;-90
2021/04/08 00:51:30;;;;;;;11.98;7.88;;;4.40;62.40;4.80;100500.00;;;;337319;28;97225;-90
2021/04/08 00:51:41;;;;;;;12.73;7.82;;;4.30;62.30;4.90;100489.00;;;;336120;28;92041;-90
2021/04/08 00:51:53;;;;;;;12.77;7.65;;;4.40;62.40;4.70;100496.00;;;;336355;28;94228;-89
2021/04/08 00:52:06;;;;;;;12.00;7.28;;;4.40;62.20;4.80;100500.00;;;;337243;28;90499;-90
2021/04/08 00:52:17;;;;;;;11.30;6.97;;;4.40;62.20;4.90;100493.00;;;;336548;28;93448;-89